createdAt,value
2023-03-19T00:00:31.295Z,3.13
2023-03-19T00:02:58.010Z,2.50
2023-03-19T00:05:24.768Z,3.20
2023-03-19T00:07:51.435Z,2.80
2023-03-19T00:10:18.198Z,3.20
2023-03-19T00:12:44.767Z,2.43
2023-03-19T00:15:14.327Z,2.90
2023-03-19T00:17:42.038Z,3.07
2023-03-19T00:20:09.842Z,2.70
2023-03-19T00:22:36.568Z,2.70
2023-03-19T00:25:03.767Z,3.00
2023-03-19T00:27:30.627Z,3.53
2023-03-19T00:29:57.240Z,3.00
2023-03-19T00:32:23.767Z,2.80
2023-03-19T00:34:50.966Z,2.97
2023-03-19T00:37:18.254Z,2.80
2023-03-19T00:39:44.877Z,3.03
2023-03-19T00:42:12.009Z,3.13
2023-03-19T00:44:38.605Z,2.77
2023-03-19T00:47:06.931Z,2.67
2023-03-19T00:49:33.531Z,3.20
2023-03-19T00:52:00.137Z,3.00
2023-03-19T00:54:27.507Z,2.93
2023-03-19T00:56:54.116Z,2.83
2023-03-19T00:59:20.685Z,2.70
2023-03-19T01:01:47.316Z,2.70
2023-03-19T01:04:16.827Z,2.90
2023-03-19T01:06:43.943Z,2.97
2023-03-19T01:09:10.641Z,3.00
2023-03-19T01:11:37.228Z,3.20
2023-03-19T01:14:03.911Z,2.80
2023-03-19T01:16:30.725Z,2.83
2023-03-19T01:18:57.332Z,2.60
2023-03-19T01:21:23.888Z,2.80
2023-03-19T01:23:51.966Z,2.93
2023-03-19T01:26:18.831Z,3.13
2023-03-19T01:28:45.569Z,2.73
2023-03-19T01:31:12.141Z,3.13
2023-03-19T01:33:39.390Z,3.10
2023-03-19T01:36:06.398Z,2.90
2023-03-19T01:38:32.963Z,3.03
2023-03-19T01:40:59.550Z,2.83
2023-03-19T01:43:27.489Z,2.97
2023-03-19T01:45:59.178Z,3.00
2023-03-19T01:48:28.251Z,3.10
2023-03-19T01:50:56.051Z,3.03
2023-03-19T01:53:25.842Z,2.67
2023-03-19T01:55:54.750Z,2.70
2023-03-19T01:58:21.381Z,2.73
2023-03-19T02:00:48.382Z,2.80
2023-03-19T02:03:14.963Z,3.10
2023-03-19T02:05:41.736Z,3.40
2023-03-19T02:08:10.955Z,2.83
2023-03-19T02:10:37.585Z,3.20
2023-03-19T02:13:04.451Z,2.90
2023-03-19T02:15:31.168Z,2.90
2023-03-19T02:17:57.777Z,2.70
2023-03-19T02:20:33.130Z,3.07
2023-03-19T02:23:21.744Z,2.73
2023-03-19T02:25:48.271Z,3.10
2023-03-19T02:28:16.106Z,2.60
2023-03-19T02:30:43.209Z,2.87
2023-03-19T02:33:13.384Z,3.00
2023-03-19T02:35:39.966Z,3.03
2023-03-19T02:38:07.167Z,2.70
2023-03-19T02:40:39.092Z,3.17
2023-03-19T02:43:06.437Z,2.90
2023-03-19T02:45:33.000Z,3.40
2023-03-19T02:48:00.425Z,3.00
2023-03-19T02:50:27.508Z,3.10
2023-03-19T02:52:54.275Z,2.80
2023-03-19T02:55:21.473Z,3.23
2023-03-19T02:57:48.036Z,3.10
2023-03-19T03:00:17.128Z,2.83
2023-03-19T03:02:43.699Z,2.73
2023-03-19T03:05:10.262Z,2.93
2023-03-19T03:07:36.903Z,3.20
2023-03-19T03:10:03.555Z,3.07
2023-03-19T03:12:30.324Z,3.10
2023-03-19T03:14:57.205Z,3.07
2023-03-19T03:17:24.335Z,3.30
2023-03-19T03:19:51.036Z,3.20
2023-03-19T03:22:17.593Z,2.70
2023-03-19T03:24:44.196Z,3.20
2023-03-19T03:27:11.012Z,3.23
2023-03-19T03:29:37.557Z,3.30
2023-03-19T03:32:04.296Z,3.03
2023-03-19T03:34:30.862Z,2.70
2023-03-19T03:36:57.421Z,3.03
2023-03-19T03:39:24.275Z,3.17
2023-03-19T03:41:51.570Z,2.83
2023-03-19T03:44:18.281Z,2.83
2023-03-19T03:46:44.885Z,2.80
2023-03-19T03:49:11.537Z,2.83
2023-03-19T03:51:38.207Z,2.80
2023-03-19T03:54:04.715Z,3.00
2023-03-19T03:56:31.478Z,3.07
2023-03-19T03:58:58.034Z,2.57
2023-03-19T04:01:24.643Z,3.03
2023-03-19T04:03:51.218Z,3.30
2023-03-19T04:06:18.764Z,3.00
2023-03-19T04:08:45.297Z,3.50
2023-03-19T04:11:11.930Z,2.90
2023-03-19T04:13:38.546Z,3.10
2023-03-19T04:16:05.791Z,3.10
2023-03-19T04:18:32.475Z,3.00
2023-03-19T04:20:59.019Z,3.00
2023-03-19T04:23:25.731Z,3.00
2023-03-19T04:25:52.382Z,2.93
2023-03-19T04:28:19.021Z,3.03
2023-03-19T04:30:45.647Z,2.90
2023-03-19T04:33:13.106Z,3.07
2023-03-19T04:35:39.678Z,3.10
2023-03-19T04:38:06.239Z,2.90
2023-03-19T04:40:33.319Z,2.93
2023-03-19T04:43:00.004Z,3.17
2023-03-19T04:45:27.041Z,3.27
2023-03-19T04:47:53.981Z,2.83
2023-03-19T04:50:20.552Z,3.00
2023-03-19T04:52:47.101Z,2.83
2023-03-19T04:55:13.687Z,3.17
2023-03-19T04:57:41.030Z,2.90
2023-03-19T05:00:08.853Z,3.03
2023-03-19T05:02:35.757Z,3.30
2023-03-19T05:05:02.432Z,3.13
2023-03-19T05:07:28.923Z,2.70
2023-03-19T05:09:55.736Z,3.20
2023-03-19T05:12:22.328Z,3.00
2023-03-19T05:14:48.875Z,3.00
2023-03-19T05:17:15.672Z,3.10
2023-03-19T05:19:42.336Z,3.50
2023-03-19T05:22:08.950Z,3.47
2023-03-19T05:24:36.181Z,3.30
2023-03-19T05:27:02.821Z,3.00
2023-03-19T05:29:29.435Z,3.20
2023-03-19T05:31:56.351Z,3.07
2023-03-19T05:34:23.494Z,3.10
2023-03-19T05:36:50.147Z,3.10
2023-03-19T05:39:16.759Z,3.60
2023-03-19T05:41:43.279Z,2.90
2023-03-19T05:44:09.805Z,2.83
2023-03-19T05:46:36.501Z,2.70
2023-03-19T05:49:03.319Z,2.93
2023-03-19T05:51:29.946Z,2.70
2023-03-19T05:53:56.487Z,3.13
2023-03-19T05:56:23.092Z,2.80
2023-03-19T05:58:49.632Z,2.83
2023-03-19T06:01:16.323Z,3.20
2023-03-19T06:03:42.926Z,3.00
2023-03-19T06:06:12.094Z,3.23
2023-03-19T06:08:38.690Z,3.10
2023-03-19T06:11:05.310Z,3.27
2023-03-19T06:13:31.901Z,3.50
2023-03-19T06:15:58.684Z,3.80
2023-03-19T06:18:25.740Z,3.83
2023-03-19T06:20:52.950Z,3.90
2023-03-19T06:23:19.493Z,3.60
2023-03-19T06:25:46.202Z,4.10
2023-03-19T06:28:12.742Z,3.77
2023-03-19T06:30:39.317Z,3.93
2023-03-19T06:33:06.506Z,3.83
2023-03-19T06:35:33.089Z,3.87
2023-03-19T06:37:59.621Z,4.10
2023-03-19T06:40:26.215Z,5.07
2023-03-19T06:42:53.088Z,8.87
2023-03-19T06:45:20.227Z,9.67
2023-03-19T06:47:51.126Z,9.33
2023-03-19T06:50:18.966Z,10.73
2023-03-19T06:52:45.988Z,9.97
2023-03-19T06:55:12.694Z,10.03
2023-03-19T06:57:39.328Z,9.83
2023-03-19T07:00:06.560Z,9.27
2023-03-19T07:02:33.062Z,10.03
2023-03-19T07:04:59.642Z,9.33
2023-03-19T07:07:26.188Z,8.77
2023-03-19T07:09:52.689Z,8.50
2023-03-19T07:12:19.214Z,8.30
2023-03-19T07:14:48.834Z,8.70
2023-03-19T07:17:16.154Z,8.37
2023-03-19T07:22:23.240Z,7.50
2023-03-19T07:24:51.608Z,7.20
2023-03-19T07:27:18.132Z,7.23
2023-03-19T07:29:44.701Z,6.43
2023-03-19T07:32:11.419Z,6.07
2023-03-19T07:34:37.939Z,5.50
2023-03-19T07:37:04.499Z,5.87
2023-03-19T07:39:31.035Z,5.47
2023-03-19T07:41:57.606Z,5.67
2023-03-19T07:44:24.210Z,5.37
2023-03-19T07:46:50.966Z,5.00
2023-03-19T07:49:17.554Z,5.10
2023-03-19T07:51:44.369Z,4.80
2023-03-19T07:54:10.990Z,5.50
2023-03-19T07:56:37.620Z,5.90
2023-03-19T07:59:04.184Z,6.10
2023-03-19T08:01:30.813Z,7.53
2023-03-19T08:03:57.360Z,8.10
2023-03-19T08:06:24.140Z,8.10
2023-03-19T08:08:50.970Z,8.67
2023-03-19T08:11:17.654Z,8.83
2023-03-19T08:13:44.334Z,8.13
2023-03-19T08:16:11.622Z,8.07
2023-03-19T08:18:38.143Z,7.83
2023-03-19T08:21:05.015Z,8.07
2023-03-19T08:23:32.182Z,8.13
2023-03-19T08:25:58.742Z,8.33
2023-03-19T08:28:25.453Z,8.27
2023-03-19T08:30:52.186Z,9.27
2023-03-19T08:33:18.764Z,8.20
2023-03-19T08:35:45.380Z,8.80
2023-03-19T08:38:12.019Z,8.43
2023-03-19T08:40:38.671Z,8.10
2023-03-19T08:43:05.359Z,8.03
2023-03-19T08:45:32.002Z,8.30
2023-03-19T08:47:58.538Z,7.70
2023-03-19T08:50:25.111Z,7.70
2023-03-19T08:52:51.676Z,7.70
2023-03-19T08:55:18.347Z,6.90
2023-03-19T08:57:44.872Z,7.63
2023-03-19T09:00:12.606Z,7.03
2023-03-19T09:02:40.357Z,7.33
2023-03-19T09:05:07.372Z,6.63
2023-03-19T09:07:33.923Z,6.90
2023-03-19T09:10:00.549Z,6.70
2023-03-19T09:12:27.147Z,6.60
2023-03-19T09:14:53.720Z,6.67
2023-03-19T09:17:20.246Z,6.20
2023-03-19T09:19:46.801Z,5.87
2023-03-19T09:22:13.360Z,6.80
2023-03-19T09:24:40.780Z,6.17
2023-03-19T09:27:07.436Z,6.50
2023-03-19T09:29:39.719Z,6.23
2023-03-19T09:32:06.480Z,6.57
2023-03-19T09:34:33.124Z,6.37
2023-03-19T09:36:59.713Z,6.00
2023-03-19T09:39:26.337Z,6.33
2023-03-19T09:42:16.123Z,5.87
2023-03-19T09:44:45.408Z,5.30
2023-03-19T09:47:28.879Z,5.53
2023-03-19T09:49:57.971Z,5.83
2023-03-19T09:52:27.478Z,5.43
2023-03-19T09:54:54.065Z,5.70
2023-03-19T09:57:20.828Z,5.30
2023-03-19T09:59:47.796Z,5.30
2023-03-19T10:02:40.510Z,4.97
2023-03-19T10:05:23.048Z,5.23
2023-03-19T10:08:11.367Z,4.70
2023-03-19T10:11:09.420Z,4.90
2023-03-19T10:14:17.093Z,5.27
2023-03-19T10:16:44.214Z,4.67
2023-03-19T10:19:10.764Z,4.63
2023-03-19T10:21:45.041Z,5.07
2023-03-19T10:24:14.017Z,4.53
2023-03-19T10:26:40.628Z,4.30
2023-03-19T10:29:26.882Z,4.27
2023-03-19T10:32:00.629Z,4.40
2023-03-19T10:34:37.839Z,4.80
2023-03-19T10:37:06.470Z,4.97
2023-03-19T10:39:34.083Z,4.13
2023-03-19T10:42:25.743Z,4.20
2023-03-19T10:44:59.449Z,4.57
2023-03-19T10:47:26.422Z,4.23
2023-03-19T10:49:53.071Z,4.40
2023-03-19T10:52:30.572Z,4.00
2023-03-19T10:55:02.549Z,4.10
2023-03-19T10:57:29.470Z,4.63
2023-03-19T10:59:55.998Z,4.10
2023-03-19T11:02:27.298Z,4.40
2023-03-19T11:05:12.439Z,3.40
2023-03-19T11:07:39.118Z,3.87
2023-03-19T11:10:09.822Z,3.60
2023-03-19T11:12:37.718Z,3.80
2023-03-19T11:15:07.444Z,3.70
2023-03-19T11:17:40.369Z,4.13
2023-03-19T11:20:20.863Z,3.40
2023-03-19T11:22:48.008Z,3.40
2023-03-19T11:25:19.793Z,3.90
2023-03-19T11:27:58.560Z,4.10
2023-03-19T11:30:25.080Z,3.43
2023-03-19T11:33:03.843Z,3.20
2023-03-19T11:35:37.786Z,3.57
2023-03-19T11:38:05.067Z,3.60
2023-03-19T11:40:41.880Z,4.07
2023-03-19T11:43:33.292Z,3.77
2023-03-19T11:46:02.857Z,3.63
2023-03-19T11:49:00.593Z,4.07
2023-03-19T11:51:28.685Z,3.90
2023-03-19T11:54:10.814Z,3.50
2023-03-19T11:56:47.195Z,3.57
2023-03-19T11:59:28.909Z,4.00
2023-03-19T12:02:09.276Z,3.70
2023-03-19T12:04:45.885Z,3.53
2023-03-19T12:07:30.842Z,3.40
2023-03-19T12:10:00.403Z,3.70
2023-03-19T12:12:33.257Z,3.43
2023-03-19T12:15:09.417Z,4.00
2023-03-19T12:17:46.732Z,3.90
2023-03-19T12:21:05.984Z,3.40
2023-03-19T12:23:46.012Z,3.80
2023-03-19T12:26:19.907Z,3.50
2023-03-19T12:28:59.247Z,3.47
2023-03-19T12:31:29.496Z,3.70
2023-03-19T12:34:17.655Z,3.40
2023-03-19T12:37:01.100Z,3.63
2023-03-19T12:39:31.355Z,3.30
2023-03-19T12:41:58.246Z,3.60
2023-03-19T12:44:32.834Z,3.40
2023-03-19T12:47:28.486Z,3.50
2023-03-19T12:50:09.358Z,3.60
2023-03-19T12:52:36.850Z,3.70
2023-03-19T12:55:16.528Z,3.23
2023-03-19T12:57:49.701Z,3.57
2023-03-19T13:00:45.788Z,3.40
2023-03-19T13:03:40.451Z,3.33
2023-03-19T13:06:20.332Z,3.80
2023-03-19T13:08:49.884Z,3.10
2023-03-19T13:11:35.948Z,3.50
2023-03-19T13:14:21.267Z,3.27
2023-03-19T13:17:02.977Z,3.50
2023-03-19T13:19:40.358Z,3.53
2023-03-19T13:22:11.672Z,3.23
2023-03-19T13:24:39.037Z,3.43
2023-03-19T13:27:07.447Z,3.30
2023-03-19T13:29:36.768Z,3.20
2023-03-19T13:32:23.735Z,3.50
2023-03-19T13:34:50.310Z,3.17
2023-03-19T13:37:18.319Z,3.40
2023-03-19T13:39:45.485Z,3.03
2023-03-19T13:42:38.132Z,2.90
2023-03-19T13:45:04.933Z,2.83
2023-03-19T13:47:36.700Z,3.30
2023-03-19T13:50:06.071Z,2.90
2023-03-19T13:52:32.661Z,2.63
2023-03-19T13:55:19.457Z,2.80
2023-03-19T13:58:17.778Z,3.07
2023-03-19T14:00:45.178Z,2.87
2023-03-19T14:03:24.903Z,3.10
2023-03-19T14:05:53.160Z,3.00
2023-03-19T14:08:21.997Z,2.60
2023-03-19T14:10:50.731Z,3.00
2023-03-19T14:13:22.271Z,2.80
2023-03-19T14:15:49.779Z,2.67
2023-03-19T14:18:21.639Z,2.67
2023-03-19T14:21:32.935Z,3.00
2023-03-19T14:24:55.313Z,2.90
2023-03-19T14:27:33.240Z,2.53
2023-03-19T14:30:09.444Z,2.73
2023-03-19T14:32:40.928Z,2.50
2023-03-19T14:35:08.279Z,2.90
2023-03-19T14:37:37.718Z,2.80
2023-03-19T14:40:11.447Z,2.63
2023-03-19T14:43:02.515Z,2.43
2023-03-19T14:45:28.996Z,2.73
2023-03-19T14:48:36.629Z,2.40
2023-03-19T14:51:09.199Z,2.70
2023-03-19T14:53:44.835Z,2.57
2023-03-19T14:56:16.382Z,2.53
2023-03-19T14:58:56.342Z,2.30
2023-03-19T15:01:29.474Z,2.67
2023-03-19T15:03:59.943Z,2.30
2023-03-19T15:06:26.588Z,2.40
2023-03-19T15:08:53.134Z,2.57
2023-03-19T15:11:29.504Z,2.33
2023-03-19T15:14:11.834Z,2.90
2023-03-19T15:17:00.643Z,2.47
2023-03-19T15:19:28.901Z,2.63
2023-03-19T15:22:31.857Z,2.10
2023-03-19T15:25:12.716Z,2.37
2023-03-19T15:27:39.532Z,2.27
2023-03-19T15:30:28.862Z,2.83
2023-03-19T15:33:10.472Z,2.57
2023-03-19T15:35:41.568Z,2.83
2023-03-19T15:38:09.492Z,2.30
2023-03-19T15:40:36.923Z,2.20
2023-03-19T15:43:03.883Z,2.63
2023-03-19T15:45:33.666Z,2.30
2023-03-19T15:48:21.766Z,2.40
2023-03-19T15:50:49.360Z,2.70
2023-03-19T15:53:18.552Z,2.40
2023-03-19T15:55:45.187Z,2.37
2023-03-19T15:58:16.576Z,2.17
2023-03-19T16:00:43.130Z,2.40
2023-03-19T16:03:16.358Z,2.10
2023-03-19T16:05:42.883Z,2.10
2023-03-19T16:08:18.396Z,2.23
2023-03-19T16:10:45.818Z,2.17
2023-03-19T16:13:32.899Z,2.27
2023-03-19T16:16:06.815Z,2.13
2023-03-19T16:18:53.686Z,2.47
2023-03-19T16:21:21.890Z,2.17
2023-03-19T16:23:54.909Z,2.30
2023-03-19T16:26:25.386Z,2.30
2023-03-19T16:29:25.326Z,2.20
2023-03-19T16:32:02.397Z,2.10
2023-03-19T16:34:34.847Z,2.00
2023-03-19T16:37:01.450Z,2.10
2023-03-19T16:39:31.188Z,2.30
2023-03-19T16:42:27.340Z,2.10
2023-03-19T16:44:53.999Z,2.00
2023-03-19T16:47:21.504Z,2.00
2023-03-19T16:49:48.097Z,1.90
2023-03-19T16:52:17.124Z,2.13
2023-03-19T16:54:43.781Z,1.80
2023-03-19T16:57:11.711Z,2.07
2023-03-19T16:59:38.356Z,2.20
2023-03-19T17:02:13.773Z,2.03
2023-03-19T17:04:40.733Z,2.10
2023-03-19T17:07:07.600Z,2.23
2023-03-19T17:09:34.135Z,2.10
2023-03-19T17:12:01.381Z,2.40
2023-03-19T17:14:27.923Z,2.60
2023-03-19T17:16:55.365Z,2.20
2023-03-19T17:19:32.211Z,2.30
2023-03-19T17:21:59.251Z,2.20
2023-03-19T17:24:30.836Z,2.43
2023-03-19T17:26:58.850Z,2.20
2023-03-19T17:29:26.196Z,2.20
2023-03-19T17:31:53.570Z,2.63
2023-03-19T17:34:25.335Z,2.37
2023-03-19T17:37:02.129Z,2.23
2023-03-19T17:39:32.086Z,2.10
2023-03-19T17:41:59.036Z,2.30
2023-03-19T17:44:25.889Z,2.13
2023-03-19T17:46:53.977Z,2.23
2023-03-19T17:49:24.276Z,2.23
2023-03-19T17:51:50.966Z,2.13
2023-03-19T17:54:17.546Z,2.30
2023-03-19T17:56:44.209Z,2.17
2023-03-19T17:59:11.067Z,2.17
2023-03-19T18:01:38.206Z,1.80
2023-03-19T18:04:04.766Z,2.43
2023-03-19T18:06:33.955Z,2.07
2023-03-19T18:09:00.832Z,2.10
2023-03-19T18:11:27.302Z,1.93
2023-03-19T18:13:54.088Z,1.90
2023-03-19T18:16:28.795Z,1.90
2023-03-19T18:18:56.427Z,2.23
2023-03-19T18:21:22.917Z,2.00
2023-03-19T18:23:49.565Z,2.03
2023-03-19T18:26:19.044Z,1.90
2023-03-19T18:28:45.843Z,2.20
2023-03-19T18:31:17.463Z,2.17
2023-03-19T18:33:46.370Z,1.90
2023-03-19T18:36:15.348Z,1.93
2023-03-19T18:38:41.918Z,2.20
2023-03-19T18:41:09.566Z,1.90
2023-03-19T18:43:36.279Z,2.10
2023-03-19T18:46:02.884Z,2.07
2023-03-19T18:48:31.425Z,2.07
2023-03-19T18:50:58.166Z,2.40
2023-03-19T18:53:24.772Z,2.00
2023-03-19T18:55:51.506Z,1.90
2023-03-19T18:58:20.481Z,2.00
2023-03-19T19:00:47.135Z,1.93
2023-03-19T19:03:15.409Z,2.40
2023-03-19T19:05:42.308Z,2.07
2023-03-19T19:08:17.154Z,2.30
2023-03-19T19:10:47.578Z,2.50
2023-03-19T19:13:22.782Z,2.37
2023-03-19T19:15:49.332Z,1.90
2023-03-19T19:18:23.097Z,2.40
2023-03-19T19:20:51.233Z,2.30
2023-03-19T19:23:18.072Z,2.00
2023-03-19T19:25:45.374Z,2.20
2023-03-19T19:28:20.464Z,1.93
2023-03-19T19:30:48.112Z,2.10
2023-03-19T19:33:21.871Z,2.20
2023-03-19T19:35:48.912Z,2.40
2023-03-19T19:38:15.652Z,2.17
2023-03-19T19:40:43.227Z,2.10
2023-03-19T19:43:20.969Z,2.30
2023-03-19T19:45:55.593Z,2.10
2023-03-19T19:48:26.556Z,2.10
2023-03-19T19:50:53.913Z,2.07
2023-03-19T19:53:20.683Z,2.20
2023-03-19T19:55:47.467Z,2.00
2023-03-19T19:58:24.039Z,2.00
2023-03-19T20:01:02.782Z,1.70
2023-03-19T20:03:31.338Z,2.00
2023-03-19T20:05:58.224Z,2.27
2023-03-19T20:08:28.177Z,2.00
2023-03-19T20:10:55.105Z,1.97
2023-03-19T20:13:26.087Z,2.00
2023-03-19T20:15:53.658Z,1.90
2023-03-19T20:18:23.384Z,2.10
2023-03-19T20:20:50.070Z,2.13
2023-03-19T20:23:16.852Z,1.93
2023-03-19T20:25:44.339Z,2.00
2023-03-19T20:28:19.410Z,2.03
2023-03-19T20:30:46.107Z,1.70
2023-03-19T20:33:12.876Z,2.00
2023-03-19T20:35:39.691Z,2.17
2023-03-19T20:40:57.454Z,2.00
2023-03-19T20:43:30.850Z,1.83
2023-03-19T20:45:58.461Z,2.23
2023-03-19T20:48:25.800Z,1.90
2023-03-19T20:50:52.545Z,2.10
2023-03-19T20:53:19.282Z,1.87
2023-03-19T20:55:46.310Z,1.60
2023-03-19T20:58:34.873Z,1.93
2023-03-19T21:01:02.868Z,1.73
2023-03-19T21:03:32.753Z,1.90
2023-03-19T21:06:03.240Z,2.10
2023-03-19T21:08:32.777Z,1.90
2023-03-19T21:10:59.569Z,1.63
2023-03-19T21:13:26.530Z,1.50
2023-03-19T21:15:56.478Z,1.90
2023-03-19T21:18:23.302Z,1.87
2023-03-19T21:20:53.964Z,2.10
2023-03-19T21:23:29.930Z,1.90
2023-03-19T21:25:56.794Z,1.90
2023-03-19T21:28:30.017Z,1.80
2023-03-19T21:30:57.768Z,1.77
2023-03-19T21:33:31.651Z,1.80
2023-03-19T21:35:58.491Z,1.80
2023-03-19T21:38:25.321Z,1.70
2023-03-19T21:40:54.178Z,1.53
2023-03-19T21:43:22.720Z,1.80
2023-03-19T21:45:52.611Z,1.97
2023-03-19T21:48:34.925Z,1.67
2023-03-19T21:51:02.142Z,1.63
2023-03-19T21:53:28.829Z,1.63
2023-03-19T21:55:57.181Z,1.80
2023-03-19T21:58:29.637Z,1.80
2023-03-19T22:00:56.419Z,1.63
2023-03-19T22:03:23.321Z,1.67
2023-03-19T22:05:50.924Z,1.73
2023-03-19T22:08:20.450Z,1.80
2023-03-19T22:10:48.762Z,1.83
2023-03-19T22:13:21.598Z,1.70
2023-03-19T22:15:49.386Z,1.97
2023-03-19T22:18:16.088Z,1.63
2023-03-19T22:20:43.787Z,1.90
2023-03-19T22:23:11.462Z,1.60
2023-03-19T22:25:41.821Z,1.57
2023-03-19T22:28:22.950Z,1.70
2023-03-19T22:30:49.608Z,2.07
2023-03-19T22:33:21.476Z,1.50
2023-03-19T22:35:50.917Z,1.43
2023-03-19T22:38:18.472Z,1.90
2023-03-19T22:40:46.700Z,1.70
2023-03-19T22:43:20.990Z,1.80
2023-03-19T22:45:50.247Z,1.63
2023-03-19T22:48:17.999Z,1.60
2023-03-19T22:50:45.323Z,1.80
2023-03-19T22:53:21.464Z,1.60
2023-03-19T22:55:48.127Z,1.67
2023-03-19T22:58:23.410Z,1.87
2023-03-19T23:00:50.151Z,1.50
2023-03-19T23:03:34.931Z,1.73
2023-03-19T23:06:02.383Z,1.70
2023-03-19T23:08:28.956Z,1.60
2023-03-19T23:10:55.682Z,1.80
2023-03-19T23:13:22.312Z,1.70
2023-03-19T23:15:50.083Z,1.90
2023-03-19T23:18:26.857Z,1.80
2023-03-19T23:20:53.680Z,1.70
2023-03-19T23:23:21.084Z,1.60
2023-03-19T23:25:47.705Z,1.60
2023-03-19T23:28:18.617Z,1.57
2023-03-19T23:30:46.389Z,1.60
2023-03-19T23:33:13.229Z,1.70
2023-03-19T23:35:40.424Z,1.60
2023-03-19T23:38:07.082Z,1.60
2023-03-19T23:40:36.211Z,1.70
2023-03-19T23:43:03.092Z,1.67
2023-03-19T23:45:41.706Z,1.70
2023-03-19T23:48:13.571Z,1.77
2023-03-19T23:50:40.156Z,1.80
2023-03-19T23:53:07.112Z,1.67
2023-03-19T23:55:34.223Z,1.90
2023-03-19T23:58:01.397Z,1.70
